Weerspreuk van de week: Als in januari de muggen zwermen,dan kun je in maart de oren wermen.

We konden geen weer-waarchuwingen ophalen. Ga rechtstreeks naar de Meteoalarm site : www.meteoalarm.eu en controleer daar .


Onweer radar Meer informatie blitzortung!


Regen radar Meer informatie rain snow radar


Bekijk deze sites ook eens:

Awekas

Canon

Het weer actueel

Diam Telecom

FPL Automotive (TIP)

Paradigit

Over Luyksgestel

Zooplus

De Kempen, mijn omgeving

Douglas

BOL.com

Weerstation Noordbergum

Inktweb

Weerstation Hapert

Weerstation Hoogeloon

Youfone

Weerstation Son&Breugel

Weerstation Castaert

Weerstation Tilburg Reeshof

Weerstation Scheulder

Weerverwachting Samos

Samos actueel

Weerwoord (forum)

Griekenlandforum

Wolven in Nederland



METAR rapporten vliegvelden

   
EBAW - Antwerp
Gewijzigd: 29-01-2022 03:20
Nevel, Bewolking  
Nevel, Bewolking  
   Wind: ZW 18.5 km/h
Wind: ZW 18.5 km/h
Temperatuur: 6°C
Voelt als: 3°C
Dauwpunt: 5°C
Vochtigheid: 93%
Barometer: 1028 hPa
Bewolking: Bewolking
Zicht: 2 km
Bewolking: Bewolking 300 ft
EBAW 290220Z AUTO 22010KT 2200 BR OVC003/// 06/05 Q1028
EBLG - Liège
Gewijzigd: 29-01-2022 03:20
Lichte (mot)regen, Grotendeels bewolkt  
Lichte (mot)regen, Grotendeels bewolkt  
   Wind: ZW 25.9 km/h
Wind: ZW 25.9 km/h
Temperatuur: 4°C
Voelt als: -1°C
Dauwpunt: 4°C
Vochtigheid: 100%
Barometer: 1029 hPa
Bewolking: Grotendeels bewolkt
Zicht: 6 km
Bewolking: Licht bewolkt 600 ft,
Grotendeels bewolkt 700 ft
EBLG 290220Z 23014KT 6000 -DZ FEW006 BKN007 04/04 Q1029 TEMPO 3000 DZ
EBCV - Mons/Bergen
Gewijzigd: 29-01-2022 02:55
Nevel, Bewolking  
Nevel, Bewolking  
   Wind: ZZW 20.4 km/h
Wind: ZZW 20.4 km/h
Temperatuur: 5°C
Voelt als: 1°C
Dauwpunt: 5°C
Vochtigheid: 100%
Barometer: 1030 hPa
Bewolking: Bewolking
Zicht: 2 km
Bewolking: Bewolking 500 ft
EBCV 290155Z AUTO 21011KT 2400 BR OVC005/// 05/05 Q1030 YLO
EHBK - Maastricht
Gewijzigd: 29-01-2022 03:25
Bewolking  
Bewolking  
   Wind: ZW 27.8 km/h
Wind: ZW 27.8 km/h
Temperatuur: 5°C
Voelt als: 0°C
Dauwpunt: 4°C
Vochtigheid: 93%
Barometer: 1029 hPa
Bewolking: Bewolking
Zicht: 5 km
Bewolking: Grotendeels bewolkt 700 ft,
Bewolking 800 ft
EHBK 290225Z AUTO 23015KT 200V260 5000 BKN007 OVC008 05/04 Q1029
ELLX - Luxemburg
Gewijzigd: 29-01-2022 03:20
Mist, Bewolking  
Mist, Bewolking  
   Wind: ZW 18.5 km/h
Wind: ZW 18.5 km/h
Temperatuur: 2°C
Voelt als: -2°C
Dauwpunt: 2°C
Vochtigheid: 100%
Barometer: 1031 hPa
Bewolking: Bewolking
Zicht: 0 km
Bewolking: Bewolking 200 ft
ELLX 290220Z 23010KT 0200 R24/1400V2000D FG VV002 02/02 Q1031 NOSIG
EBOS - Oostende
Gewijzigd: 29-01-2022 03:20
Grotendeels bewolkt  
Grotendeels bewolkt  
   Wind: ZW 20.4 km/h
Wind: ZW 20.4 km/h
Temperatuur: 8°C
Voelt als: 5°C
Dauwpunt: 7°C
Vochtigheid: 93%
Barometer: 1028 hPa
Bewolking: Grotendeels bewolkt
Zicht: meer dan 10 km
Bewolking: Licht bewolkt 600 ft,
Grotendeels bewolkt 1000 ft,
Grotendeels bewolkt 3000 ft
EBOS 290220Z 23011KT 9999 FEW006 BKN010 BKN030 08/07 Q1028 TEMPO BKN006

Script ontwikkeld door  Saratoga-weather.org Aangepast voor de template door  Weerstation Leuven

U vindt ons ook hier:

Het Weer Aktueel

UK Metoffice

European Weather Network

Weather Underground

AWEKAS